createdAt,value
2019-03-05T00:00:57.107Z,4.30
2019-03-05T00:03:26.341Z,4.30
2019-03-05T00:05:55.890Z,4.30
2019-03-05T00:08:24.705Z,4.30
2019-03-05T00:10:53.902Z,4.30
2019-03-05T00:13:23.166Z,4.20
2019-03-05T00:15:53.838Z,4.20
2019-03-05T00:18:23.498Z,4.10
2019-03-05T00:20:52.646Z,4.10
2019-03-05T00:23:57.391Z,4.00
2019-03-05T00:26:32.741Z,3.90
2019-03-05T00:29:30.509Z,3.90
2019-03-05T00:31:59.926Z,3.80
2019-03-05T00:35:03.260Z,3.70
2019-03-05T00:37:56.510Z,3.70
2019-03-05T00:40:50.047Z,3.70
2019-03-05T00:43:56.223Z,3.60
2019-03-05T00:47:09.042Z,3.50
2019-03-05T00:50:22.599Z,3.50
2019-03-05T00:53:06.279Z,3.50
2019-03-05T00:56:00.455Z,3.50
2019-03-05T00:58:40.320Z,3.50
2019-03-05T01:01:28.279Z,3.50
2019-03-05T01:04:26.383Z,3.50
2019-03-05T01:06:55.827Z,3.50
2019-03-05T01:09:25.003Z,3.50
2019-03-05T01:11:54.658Z,3.50
2019-03-05T01:14:25.447Z,3.40
2019-03-05T01:16:54.349Z,3.40
2019-03-05T01:19:23.478Z,3.40
2019-03-05T01:21:53.003Z,3.40
2019-03-05T01:24:22.751Z,3.50
2019-03-05T01:26:52.183Z,3.50
2019-03-05T01:29:21.921Z,3.50
2019-03-05T01:32:16.661Z,3.50
2019-03-05T01:35:01.211Z,3.50
2019-03-05T01:37:30.120Z,3.50
2019-03-05T01:40:10.846Z,3.50
2019-03-05T01:42:40.368Z,3.50
2019-03-05T01:45:10.809Z,3.50
2019-03-05T01:47:40.184Z,3.50
2019-03-05T01:50:11.410Z,3.50
2019-03-05T01:52:40.598Z,3.50
2019-03-05T01:55:09.835Z,3.60
2019-03-05T01:57:39.260Z,3.60
2019-03-05T02:00:11.681Z,3.60
2019-03-05T02:02:41.679Z,3.60
2019-03-05T02:05:10.793Z,3.60
2019-03-05T02:07:40.046Z,3.60
2019-03-05T02:10:14.736Z,3.60
2019-03-05T02:12:43.581Z,3.60
2019-03-05T02:15:13.591Z,3.60
2019-03-05T02:17:42.755Z,3.60
2019-03-05T02:20:14.966Z,3.70
2019-03-05T02:22:48.207Z,3.70
2019-03-05T02:25:30.166Z,3.60
2019-03-05T02:28:11.478Z,3.70
2019-03-05T02:31:27.697Z,3.60
2019-03-05T02:34:08.433Z,3.60
2019-03-05T02:37:07.035Z,3.60
2019-03-05T02:40:19.519Z,3.50
2019-03-05T02:43:19.195Z,3.50
2019-03-05T02:46:11.758Z,3.50
2019-03-05T02:49:10.006Z,3.50
2019-03-05T02:52:09.855Z,3.50
2019-03-05T02:55:29.130Z,3.50
2019-03-05T02:57:56.892Z,3.40
2019-03-05T03:00:47.738Z,3.40
2019-03-05T03:03:24.725Z,3.40
2019-03-05T03:06:03.101Z,3.40
2019-03-05T03:08:32.887Z,3.30
2019-03-05T03:11:02.062Z,3.30
2019-03-05T03:13:31.325Z,3.30
2019-03-05T03:16:00.292Z,3.30
2019-03-05T03:18:30.087Z,3.40
2019-03-05T03:20:59.252Z,3.40
2019-03-05T03:23:28.771Z,3.40
2019-03-05T03:25:57.670Z,3.50
2019-03-05T03:28:27.131Z,3.50
2019-03-05T03:30:57.023Z,3.50
2019-03-05T03:33:26.297Z,3.50
2019-03-05T03:35:55.569Z,3.50
2019-03-05T03:38:24.948Z,3.50
2019-03-05T03:40:54.642Z,3.60
2019-03-05T03:43:24.087Z,3.60
2019-03-05T03:45:53.629Z,3.60
2019-03-05T03:48:23.310Z,3.50
2019-03-05T03:50:52.174Z,3.50
2019-03-05T03:53:21.374Z,3.60
2019-03-05T03:55:50.486Z,3.50
2019-03-05T03:58:19.440Z,3.50
2019-03-05T04:00:48.762Z,3.50
2019-03-05T04:03:18.243Z,3.50
2019-03-05T04:05:47.639Z,3.40
2019-03-05T04:08:16.892Z,3.40
2019-03-05T04:10:46.116Z,3.40
2019-03-05T04:13:15.031Z,3.30
2019-03-05T04:15:44.210Z,3.30
2019-03-05T04:18:13.638Z,3.30
2019-03-05T04:20:46.827Z,3.30
2019-03-05T04:23:16.097Z,3.20
2019-03-05T04:25:45.491Z,3.30
2019-03-05T04:28:14.926Z,3.20
2019-03-05T04:30:44.311Z,3.30
2019-03-05T04:33:14.153Z,3.30
2019-03-05T04:35:43.356Z,3.30
2019-03-05T04:38:13.370Z,3.30
2019-03-05T04:40:42.803Z,3.30
2019-03-05T04:43:11.982Z,3.30
2019-03-05T04:46:15.391Z,3.20
2019-03-05T04:48:46.394Z,3.20
2019-03-05T04:51:22.942Z,3.10
2019-03-05T04:53:52.572Z,3.10
2019-03-05T04:56:21.456Z,3.00
2019-03-05T04:58:51.110Z,3.00
2019-03-05T05:01:19.977Z,3.00
2019-03-05T05:03:49.131Z,3.00
2019-03-05T05:06:18.018Z,3.00
2019-03-05T05:08:47.273Z,3.00
2019-03-05T05:11:16.155Z,3.00
2019-03-05T05:13:45.873Z,3.00
2019-03-05T05:16:15.114Z,3.00
2019-03-05T05:18:44.322Z,3.00
2019-03-05T05:21:13.123Z,3.10
2019-03-05T05:23:42.536Z,3.00
2019-03-05T05:26:11.631Z,3.10
2019-03-05T05:28:40.749Z,3.10
2019-03-05T05:31:09.761Z,3.20
2019-03-05T05:33:39.187Z,3.20
2019-03-05T05:36:08.362Z,3.30
2019-03-05T05:38:37.803Z,3.30
2019-03-05T05:41:07.405Z,3.30
2019-03-05T05:43:36.798Z,3.30
2019-03-05T05:46:06.075Z,3.40
2019-03-05T05:48:35.686Z,3.40
2019-03-05T05:51:04.863Z,3.40
2019-03-05T05:53:34.010Z,3.40
2019-03-05T05:56:03.408Z,3.40
2019-03-05T05:58:33.032Z,3.40
2019-03-05T06:01:06.054Z,3.30
2019-03-05T06:03:37.816Z,3.30
2019-03-05T06:06:06.563Z,3.20
2019-03-05T06:08:35.959Z,3.20
2019-03-05T06:11:04.907Z,3.20
2019-03-05T06:13:33.799Z,3.10
2019-03-05T06:16:03.023Z,3.10
2019-03-05T06:18:32.136Z,3.10
2019-03-05T06:21:01.518Z,3.10
2019-03-05T06:23:30.792Z,3.10
2019-03-05T06:25:59.907Z,3.10
2019-03-05T06:28:29.454Z,3.00
2019-03-05T06:30:58.655Z,3.10
2019-03-05T06:33:28.026Z,3.00
2019-03-05T06:35:56.941Z,3.00
2019-03-05T06:38:26.083Z,3.00
2019-03-05T06:40:55.384Z,3.00
2019-03-05T06:43:24.459Z,3.00
2019-03-05T06:45:53.857Z,3.10
2019-03-05T06:48:23.324Z,3.10
2019-03-05T06:50:52.396Z,3.10
2019-03-05T06:53:21.990Z,3.10
2019-03-05T06:55:50.899Z,3.10
2019-03-05T06:58:20.482Z,3.10
2019-03-05T07:00:49.955Z,3.10
2019-03-05T07:03:19.146Z,3.10
2019-03-05T07:06:23.848Z,3.10
2019-03-05T07:09:01.383Z,3.10
2019-03-05T07:11:47.215Z,3.20
2019-03-05T07:14:21.835Z,3.20
2019-03-05T07:17:06.988Z,3.20
2019-03-05T07:20:07.138Z,3.20
2019-03-05T07:22:51.546Z,3.20
2019-03-05T07:25:20.662Z,3.30
2019-03-05T07:27:53.403Z,3.30
2019-03-05T07:30:24.123Z,3.40
2019-03-05T07:32:53.877Z,3.50
2019-03-05T07:35:30.963Z,3.50
2019-03-05T07:38:00.236Z,3.60
2019-03-05T07:40:29.439Z,3.70
2019-03-05T07:42:58.920Z,3.70
2019-03-05T07:45:28.280Z,3.80
2019-03-05T07:47:57.371Z,3.90
2019-03-05T07:50:27.777Z,4.00
2019-03-05T07:52:56.951Z,4.00
2019-03-05T07:55:28.227Z,4.00
2019-03-05T07:57:57.646Z,4.10
2019-03-05T08:00:27.199Z,4.10
2019-03-05T08:02:56.567Z,4.10
2019-03-05T08:05:25.946Z,4.20
2019-03-05T08:07:55.498Z,4.20
2019-03-05T08:10:32.807Z,4.20
2019-03-05T08:13:12.553Z,4.20
2019-03-05T08:16:27.403Z,4.20
2019-03-05T08:18:57.068Z,4.20
2019-03-05T08:21:26.350Z,4.20
2019-03-05T08:23:55.870Z,4.20
2019-03-05T08:26:25.327Z,4.20
2019-03-05T08:28:54.716Z,4.20
2019-03-05T08:31:23.625Z,4.30
2019-03-05T08:33:53.458Z,4.30
2019-03-05T08:36:23.018Z,4.30
2019-03-05T08:38:52.307Z,4.30
2019-03-05T08:41:21.687Z,4.30
2019-03-05T08:43:51.367Z,4.30
2019-03-05T08:46:21.059Z,4.40
2019-03-05T08:48:50.451Z,4.50
2019-03-05T08:51:19.715Z,4.50
2019-03-05T08:53:50.076Z,4.60
2019-03-05T08:56:19.190Z,4.60
2019-03-05T08:58:48.389Z,4.60
2019-03-05T09:01:17.654Z,4.70
2019-03-05T09:03:47.016Z,4.70
2019-03-05T09:06:16.323Z,4.70
2019-03-05T09:08:45.845Z,4.70
2019-03-05T09:11:15.519Z,4.80
2019-03-05T09:13:44.941Z,4.80
2019-03-05T09:16:14.419Z,4.80
2019-03-05T09:18:43.470Z,4.90
2019-03-05T09:21:13.107Z,5.00
2019-03-05T09:23:42.679Z,5.00
2019-03-05T09:26:11.931Z,5.10
2019-03-05T09:28:41.453Z,5.10
2019-03-05T09:31:10.358Z,5.20
2019-03-05T09:33:39.650Z,5.30
2019-03-05T09:36:09.527Z,5.30
2019-03-05T09:38:38.351Z,5.40
2019-03-05T09:41:07.657Z,5.40
2019-03-05T09:43:37.438Z,5.40
2019-03-05T09:46:06.962Z,5.50
2019-03-05T09:48:36.405Z,5.50
2019-03-05T09:51:06.179Z,5.60
2019-03-05T09:53:35.390Z,5.60
2019-03-05T09:56:06.587Z,5.70
2019-03-05T09:58:36.516Z,5.70
2019-03-05T10:01:06.875Z,5.80
2019-03-05T10:03:35.987Z,5.90
2019-03-05T10:06:05.683Z,5.90
2019-03-05T10:08:34.862Z,6.00
2019-03-05T10:11:04.155Z,6.00
2019-03-05T10:13:33.427Z,6.20
2019-03-05T10:16:02.633Z,6.20
2019-03-05T10:18:31.691Z,6.30
2019-03-05T10:21:00.863Z,6.30
2019-03-05T10:23:29.787Z,6.30
2019-03-05T10:25:59.261Z,6.40
2019-03-05T10:28:28.919Z,6.40
2019-03-05T10:30:58.234Z,6.50
2019-03-05T10:33:27.523Z,6.50
2019-03-05T10:35:57.305Z,6.50
2019-03-05T10:38:26.574Z,6.60
2019-03-05T10:40:56.548Z,6.60
2019-03-05T10:43:25.764Z,6.60
2019-03-05T10:45:55.216Z,6.60
2019-03-05T10:48:24.551Z,6.70
2019-03-05T10:50:54.180Z,6.70
2019-03-05T10:53:23.620Z,6.70
2019-03-05T10:55:52.971Z,6.80
2019-03-05T10:58:33.133Z,6.70
2019-03-05T11:00:53.233Z,6.80
2019-03-05T11:03:23.676Z,6.90
2019-03-05T11:05:53.090Z,6.90
2019-03-05T11:08:24.139Z,6.90
2019-03-05T11:10:55.480Z,7.00
2019-03-05T11:13:25.001Z,7.00
2019-03-05T11:15:55.787Z,7.00
2019-03-05T11:18:29.250Z,7.10
2019-03-05T11:20:56.409Z,7.00
2019-03-05T11:23:25.366Z,7.00
2019-03-05T11:25:54.892Z,7.10
2019-03-05T11:28:24.515Z,7.10
2019-03-05T11:30:53.779Z,7.00
2019-03-05T11:33:23.071Z,7.10
2019-03-05T11:35:52.167Z,7.10
2019-03-05T11:38:21.712Z,7.10
2019-03-05T11:40:51.235Z,7.10
2019-03-05T11:43:20.098Z,7.10
2019-03-05T11:45:49.347Z,7.10
2019-03-05T11:48:18.570Z,7.10
2019-03-05T11:50:47.694Z,7.10
2019-03-05T11:53:16.759Z,7.10
2019-03-05T11:55:45.955Z,7.20
2019-03-05T11:58:15.168Z,7.20
2019-03-05T12:01:00.703Z,7.20
2019-03-05T12:03:30.346Z,7.30
2019-03-05T12:05:59.574Z,7.30
2019-03-05T12:08:29.019Z,7.30
2019-03-05T12:10:58.815Z,7.30
2019-03-05T12:13:28.090Z,7.30
2019-03-05T12:15:58.167Z,7.30
2019-03-05T12:18:27.468Z,7.30
2019-03-05T12:20:57.649Z,7.30
2019-03-05T12:23:26.867Z,7.30
2019-03-05T12:25:56.398Z,7.20
2019-03-05T12:28:25.283Z,7.20
2019-03-05T12:30:54.591Z,7.20
2019-03-05T12:33:24.315Z,7.10
2019-03-05T12:35:53.694Z,7.10
2019-03-05T12:38:22.921Z,7.00
2019-03-05T12:40:52.409Z,7.00
2019-03-05T12:43:21.593Z,7.00
2019-03-05T12:45:50.446Z,6.90
2019-03-05T12:48:19.420Z,6.90
2019-03-05T12:50:48.626Z,6.80
2019-03-05T12:53:18.788Z,6.80
2019-03-05T12:55:48.396Z,6.70
2019-03-05T12:58:17.358Z,6.60
2019-03-05T13:00:46.920Z,6.60
2019-03-05T13:03:16.437Z,6.60
2019-03-05T13:05:46.206Z,6.60
2019-03-05T13:08:15.127Z,6.60
2019-03-05T13:10:45.326Z,6.60
2019-03-05T13:13:15.274Z,6.60
2019-03-05T13:15:44.638Z,6.60
2019-03-05T13:18:14.505Z,6.50
2019-03-05T13:20:44.357Z,6.50
2019-03-05T13:23:13.319Z,6.50
2019-03-05T13:25:42.215Z,6.50
2019-03-05T13:28:11.678Z,6.50
2019-03-05T13:30:41.012Z,6.50
2019-03-05T13:33:10.552Z,6.40
2019-03-05T13:35:39.762Z,6.30
2019-03-05T13:38:09.429Z,6.30
2019-03-05T13:40:40.443Z,6.10
2019-03-05T13:43:09.641Z,6.00
2019-03-05T13:45:43.855Z,5.90
2019-03-05T13:48:25.143Z,5.80
2019-03-05T13:51:23.149Z,5.60
2019-03-05T13:54:31.572Z,5.50
2019-03-05T13:57:31.943Z,5.40
2019-03-05T14:00:01.235Z,5.30
2019-03-05T14:02:32.418Z,5.20
2019-03-05T14:05:27.647Z,5.10
2019-03-05T14:08:30.426Z,5.00
2019-03-05T14:10:59.839Z,5.00
2019-03-05T14:13:28.824Z,5.00
2019-03-05T14:15:58.511Z,5.00
2019-03-05T14:18:27.591Z,5.00
2019-03-05T14:20:56.797Z,4.90
2019-03-05T14:23:26.233Z,4.90
2019-03-05T14:25:55.722Z,4.90
2019-03-05T14:28:25.022Z,4.90
2019-03-05T14:30:54.610Z,4.90
2019-03-05T14:33:24.187Z,4.80
2019-03-05T14:35:53.345Z,4.80
2019-03-05T14:38:23.181Z,4.80
2019-03-05T14:40:52.445Z,4.80
2019-03-05T14:43:21.972Z,4.70
2019-03-05T14:45:51.307Z,4.70
2019-03-05T14:48:20.696Z,4.70
2019-03-05T14:50:50.121Z,4.70
2019-03-05T14:53:19.125Z,4.70
2019-03-05T14:55:48.853Z,4.70
2019-03-05T14:58:17.801Z,4.70
2019-03-05T15:00:47.096Z,4.70
2019-03-05T15:03:16.423Z,4.70
2019-03-05T15:05:45.643Z,4.70
2019-03-05T15:08:15.138Z,4.70
2019-03-05T15:10:44.245Z,4.70
2019-03-05T15:13:17.228Z,4.70
2019-03-05T15:15:44.799Z,4.70
2019-03-05T15:18:13.737Z,4.70
2019-03-05T15:20:43.179Z,4.70
2019-03-05T15:23:12.703Z,4.70
2019-03-05T15:25:42.313Z,4.60
2019-03-05T15:28:12.080Z,4.60
2019-03-05T15:30:41.590Z,4.60
2019-03-05T15:33:10.850Z,4.60
2019-03-05T15:35:40.131Z,4.50
2019-03-05T15:38:09.094Z,4.50
2019-03-05T15:40:38.503Z,4.40
2019-03-05T15:43:07.686Z,4.40
2019-03-05T15:45:37.499Z,4.40
2019-03-05T15:48:06.603Z,4.40
2019-03-05T15:50:35.946Z,4.50
2019-03-05T15:53:05.575Z,4.50
2019-03-05T15:55:34.613Z,4.50
2019-03-05T15:58:04.016Z,4.50
2019-03-05T16:00:33.104Z,4.50
2019-03-05T16:03:02.229Z,4.50
2019-03-05T16:05:31.665Z,4.50
2019-03-05T16:08:01.538Z,4.50
2019-03-05T16:10:31.004Z,4.50
2019-03-05T16:13:00.300Z,4.50
2019-03-05T16:15:30.025Z,4.50
2019-03-05T16:18:01.328Z,4.50
2019-03-05T16:20:30.683Z,4.50
2019-03-05T16:23:00.239Z,4.50
2019-03-05T16:25:29.272Z,4.50
2019-03-05T16:28:02.261Z,4.60
2019-03-05T16:30:52.498Z,4.60
2019-03-05T16:33:37.070Z,4.60
2019-03-05T16:36:32.595Z,4.60
2019-03-05T16:39:19.609Z,4.60
2019-03-05T16:42:05.962Z,4.60
2019-03-05T16:44:52.613Z,4.60
2019-03-05T16:47:43.143Z,4.60
2019-03-05T16:50:34.265Z,4.60
2019-03-05T16:53:21.540Z,4.60
2019-03-05T16:56:08.767Z,4.70
2019-03-05T16:59:08.236Z,4.60
2019-03-05T17:01:49.271Z,4.60
2019-03-05T17:04:31.640Z,4.60
2019-03-05T17:07:19.964Z,4.60
2019-03-05T17:10:02.704Z,4.60
2019-03-05T17:12:31.646Z,4.70
2019-03-05T17:15:00.918Z,4.60
2019-03-05T17:17:30.532Z,4.60
2019-03-05T17:20:00.325Z,4.60
2019-03-05T17:22:29.554Z,4.60
2019-03-05T17:24:58.938Z,4.60
2019-03-05T17:27:28.203Z,4.60
2019-03-05T17:29:57.495Z,4.60
2019-03-05T17:32:26.535Z,4.60
2019-03-05T17:34:55.421Z,4.60
2019-03-05T17:37:24.722Z,4.60
2019-03-05T17:39:54.006Z,4.50
2019-03-05T17:42:24.071Z,4.50
2019-03-05T17:44:53.092Z,4.50
2019-03-05T17:47:22.464Z,4.60
2019-03-05T17:49:51.959Z,4.50
2019-03-05T17:52:21.697Z,4.50
2019-03-05T17:54:50.870Z,4.50
2019-03-05T17:57:20.631Z,4.50
2019-03-05T17:59:50.009Z,4.50
2019-03-05T18:02:19.111Z,4.50
2019-03-05T18:04:48.187Z,4.50
2019-03-05T18:07:17.735Z,4.50
2019-03-05T18:09:46.642Z,4.40
2019-03-05T18:12:15.831Z,4.50
2019-03-05T18:14:45.330Z,4.50
2019-03-05T18:17:14.669Z,4.50
2019-03-05T18:19:44.062Z,4.40
2019-03-05T18:22:12.988Z,4.40
2019-03-05T18:24:42.431Z,4.40
2019-03-05T18:27:11.625Z,4.40
2019-03-05T18:29:40.731Z,4.30
2019-03-05T18:32:09.643Z,4.30
2019-03-05T18:34:38.479Z,4.30
2019-03-05T18:37:07.641Z,4.30
2019-03-05T18:39:36.802Z,4.20
2019-03-05T18:42:06.491Z,4.20
2019-03-05T18:44:35.682Z,4.20
2019-03-05T18:47:05.621Z,4.20
2019-03-05T18:49:35.070Z,4.20
2019-03-05T18:52:04.038Z,4.20
2019-03-05T18:54:32.975Z,4.10
2019-03-05T18:57:02.206Z,4.10
2019-03-05T18:59:31.382Z,4.10
2019-03-05T19:02:00.502Z,4.00
2019-03-05T19:04:30.315Z,4.00
2019-03-05T19:06:59.566Z,4.00
2019-03-05T19:09:29.810Z,4.00
2019-03-05T19:11:59.219Z,4.00
2019-03-05T19:14:28.567Z,3.90
2019-03-05T19:16:57.896Z,3.90
2019-03-05T19:19:27.105Z,3.80
2019-03-05T19:21:56.730Z,3.80
2019-03-05T19:24:25.629Z,3.70
2019-03-05T19:26:55.017Z,3.70
2019-03-05T19:29:24.436Z,3.70
2019-03-05T19:31:54.901Z,3.70
2019-03-05T19:34:24.631Z,3.60
2019-03-05T19:36:53.926Z,3.60
2019-03-05T19:39:24.562Z,3.60
2019-03-05T19:41:56.323Z,3.50
2019-03-05T19:44:25.444Z,3.50
2019-03-05T19:46:54.723Z,3.50
2019-03-05T19:49:24.137Z,3.40
2019-03-05T19:51:53.266Z,3.40
2019-03-05T19:54:22.686Z,3.40
2019-03-05T19:56:52.358Z,3.30
2019-03-05T19:59:21.569Z,3.30
2019-03-05T20:01:50.846Z,3.30
2019-03-05T20:04:19.939Z,3.30
2019-03-05T20:06:49.554Z,3.30
2019-03-05T20:09:20.818Z,3.30
2019-03-05T20:11:50.256Z,3.40
2019-03-05T20:14:19.447Z,3.30
2019-03-05T20:16:50.042Z,3.30
2019-03-05T20:19:19.505Z,3.20
2019-03-05T20:21:48.873Z,3.20
2019-03-05T20:24:18.299Z,3.10
2019-03-05T20:26:47.856Z,3.10
2019-03-05T20:29:17.523Z,3.10
2019-03-05T20:31:46.788Z,3.10
2019-03-05T20:34:15.658Z,3.00
2019-03-05T20:36:45.161Z,3.00
2019-03-05T20:39:14.884Z,2.90
2019-03-05T20:41:44.025Z,2.90
2019-03-05T20:44:13.835Z,2.80
2019-03-05T20:46:42.703Z,2.80
2019-03-05T20:49:11.924Z,2.80
2019-03-05T20:51:41.542Z,2.70
2019-03-05T20:54:10.967Z,2.70
2019-03-05T20:56:40.150Z,2.70
2019-03-05T20:59:09.558Z,2.60
2019-03-05T21:01:38.813Z,2.60
2019-03-05T21:04:08.521Z,2.50
2019-03-05T21:06:37.501Z,2.50
2019-03-05T21:09:18.810Z,2.50
2019-03-05T21:11:47.703Z,2.40
2019-03-05T21:14:17.543Z,2.30
2019-03-05T21:16:46.838Z,2.30
2019-03-05T21:19:15.931Z,2.30
2019-03-05T21:21:45.219Z,2.30
2019-03-05T21:24:14.199Z,2.20
2019-03-05T21:26:43.387Z,2.20
2019-03-05T21:29:12.710Z,2.10
2019-03-05T21:31:42.851Z,2.10
2019-03-05T21:34:12.686Z,2.00
2019-03-05T21:36:42.281Z,2.00
2019-03-05T21:39:16.414Z,2.00
2019-03-05T21:41:45.714Z,2.00
2019-03-05T21:44:14.694Z,1.90
2019-03-05T21:46:43.758Z,1.90
2019-03-05T21:49:13.150Z,1.90
2019-03-05T21:51:42.045Z,1.80
2019-03-05T21:54:11.710Z,1.80
2019-03-05T21:56:40.760Z,1.80
2019-03-05T21:59:09.992Z,1.80
2019-03-05T22:01:39.483Z,1.80
2019-03-05T22:04:09.010Z,1.80
2019-03-05T22:06:38.503Z,1.80
2019-03-05T22:09:07.933Z,1.80
2019-03-05T22:11:37.026Z,1.80
2019-03-05T22:14:06.470Z,1.80
2019-03-05T22:16:36.017Z,1.80
2019-03-05T22:19:05.614Z,1.80
2019-03-05T22:21:34.806Z,1.70
2019-03-05T22:24:03.845Z,1.70
2019-03-05T22:26:32.754Z,1.70
2019-03-05T22:29:01.959Z,1.70
2019-03-05T22:31:31.764Z,1.70
2019-03-05T22:34:01.006Z,1.70
2019-03-05T22:36:30.654Z,1.70
2019-03-05T22:38:59.558Z,1.80
2019-03-05T22:41:28.778Z,1.80
2019-03-05T22:43:57.668Z,1.70
2019-03-05T22:46:26.713Z,1.70
2019-03-05T22:48:56.699Z,1.70
2019-03-05T22:51:25.952Z,1.70
2019-03-05T22:53:55.414Z,1.70
2019-03-05T22:56:24.371Z,1.70
2019-03-05T22:58:53.716Z,1.70
2019-03-05T23:01:34.954Z,1.70
2019-03-05T23:04:04.647Z,1.60
2019-03-05T23:06:33.834Z,1.60
2019-03-05T23:09:05.354Z,1.60
2019-03-05T23:11:34.646Z,1.50
2019-03-05T23:14:04.312Z,1.50
2019-03-05T23:16:33.817Z,1.50
2019-03-05T23:19:03.355Z,1.40
2019-03-05T23:21:32.715Z,1.40
2019-03-05T23:24:02.698Z,1.30
2019-03-05T23:26:31.970Z,1.30
2019-03-05T23:29:01.482Z,1.30
2019-03-05T23:31:30.451Z,1.20
2019-03-05T23:33:59.805Z,1.20
2019-03-05T23:36:29.106Z,1.20
2019-03-05T23:38:58.230Z,1.20
2019-03-05T23:41:27.483Z,1.20
2019-03-05T23:43:57.259Z,1.10
2019-03-05T23:46:27.247Z,1.10
2019-03-05T23:48:56.370Z,1.00
2019-03-05T23:51:25.653Z,1.00
2019-03-05T23:53:54.490Z,0.90
2019-03-05T23:56:23.994Z,0.90
2019-03-05T23:58:53.416Z,0.90
